CheckWX is a tool to help pilots better visualize weather data.  It is not intended as a substitute for an official pre-flight weather briefing.

14:37:01 UTC

LEHC METAR
Huesca / Pirineos Airport
Monflorite/Alcalá del Obispo, Spain
Current

37 mins ago

LEHC 281400Z 24006KT 170V320 CAVOK 15/03 Q1017
Observed
Mar-28 @ 14:00 UTC
Wind
  • 240° at 6 KTS
Visibility
10,000+ meters
Flight Rules
VFR
Cloud Levels
  • Clear skies
Temperature
15°C / 59°F
Dewpoint
C / 37°F
Humidity
45%
Altimeter
30.03" Hg
Pressure
1016.92 hPa
Previous

1 hour ago

LEHC 281330Z 23005KT 160V320 CAVOK 15/03 Q1017
Observed
Mar-28 @ 13:30 UTC
Wind
  • 230° at 5 KTS
Visibility
10,000+ meters
Flight Rules
VFR
Cloud Levels
  • Clear skies
Temperature
15°C / 59°F
Dewpoint
C / 37°F
Humidity
45%
Altimeter
30.03" Hg
Pressure
1016.92 hPa
Previous

2 hours ago

LEHC 281300Z 25007KT 200V290 CAVOK 15/04 Q1017
Observed
Mar-28 @ 13:00 UTC
Wind
  • 250° at 7 KTS
Visibility
10,000+ meters
Flight Rules
VFR
Cloud Levels
  • Clear skies
Temperature
15°C / 59°F
Dewpoint
C / 39°F
Humidity
48%
Altimeter
30.03" Hg
Pressure
1016.92 hPa